Time;durP1;ratioP1;P1;durP2;ratioP2;P2;SDS_P1;SDS_P2;PMS_P1;PMS_P2;Temp;Humidity;BMP_temperature;BMP_pressure;BME280_temperature;BME280_humidity;BME280_pressure;Samples;Min_cycle;Max_cycle;Signal;HPM_P1;HPM_P2
2023/11/26 00:04:20;;;;;;;14.80;6.20;;;;;4.40;101102.00;;;;10090951;29;20223;-86
2023/11/26 00:09:22;;;;;;;25.90;6.43;;;;;4.40;101104.00;;;;10076952;29;20235;-89
2023/11/26 00:14:26;;;;;;;14.17;5.03;;;;;4.40;101102.00;;;;10069841;29;20666;-86
2023/11/26 00:19:29;;;;;;;13.63;5.23;;;;;4.40;101106.00;;;;10060588;29;20241;-86
2023/11/26 00:24:30;;;;;;;16.53;5.17;;;;;4.40;101106.00;;;;10082705;29;20223;-84
2023/11/26 00:29:40;;;;;;;23.00;5.50;;;;;4.30;101112.00;;;;10092160;29;20236;-83
2023/11/26 00:34:42;;;;;;;12.57;4.30;;;;;4.30;101120.00;;;;10078953;29;20234;-82
2023/11/26 00:39:43;;;;;;;14.33;5.67;;;;;4.40;101115.00;;;;10074117;29;20247;-83
2023/11/26 00:44:44;;;;;;;18.43;6.70;;;;;4.40;101120.00;;;;10068970;29;20222;-83
2023/11/26 00:49:45;;;;;;;18.57;7.47;;;;;4.50;101111.00;;;;10087822;29;20250;-83
2023/11/26 00:54:47;;;;;;;16.43;7.43;;;;;4.50;101105.00;;;;10073265;29;20884;-83
2023/11/26 00:59:48;;;;;;;19.10;8.00;;;;;4.40;101104.00;;;;10077375;29;20310;-83
2023/11/26 01:04:50;;;;;;;19.43;7.80;;;;;4.30;101100.00;;;;10091601;29;20232;-83
2023/11/26 01:09:51;;;;;;;20.23;7.63;;;;;4.30;101086.00;;;;10085092;29;20930;-83
2023/11/26 01:14:52;;;;;;;14.13;6.40;;;;;4.20;101090.00;;;;10074266;29;20231;-83
2023/11/26 01:19:54;;;;;;;15.47;6.23;;;;;4.00;101093.00;;;;10064961;29;20219;-83
2023/11/26 01:24:55;;;;;;;17.40;7.30;;;;;3.90;101108.00;;;;10098225;29;20211;-82
2023/11/26 01:29:58;;;;;;;19.67;6.23;;;;;3.90;101109.00;;;;10097392;29;20231;-83
2023/11/26 01:34:59;;;;;;;13.43;6.23;;;;;3.90;101111.00;;;;10072856;29;20314;-82
2023/11/26 01:40:02;;;;;;;19.40;8.10;;;;;3.90;101119.00;;;;10072503;29;20219;-83
2023/11/26 01:45:04;;;;;;;21.87;8.23;;;;;4.10;101122.00;;;;10060873;29;20258;-82
2023/11/26 01:50:08;;;;;;;28.47;10.27;;;;;4.20;101129.00;;;;10055639;29;20239;-82
2023/11/26 01:55:09;;;;;;;18.07;8.73;;;;;4.30;101129.00;;;;10055662;29;20783;-83
2023/11/26 02:00:14;;;;;;;21.73;8.80;;;;;4.40;101128.00;;;;10072842;29;20255;-83
2023/11/26 02:05:18;;;;;;;23.03;8.90;;;;;4.40;101126.00;;;;10071607;29;20946;-83
2023/11/26 02:10:19;;;;;;;18.20;8.30;;;;;4.40;101129.00;;;;10058681;29;20227;-83
2023/11/26 02:15:20;;;;;;;21.83;8.83;;;;;4.40;101131.00;;;;10073726;29;20322;-83
2023/11/26 02:20:22;;;;;;;20.23;7.93;;;;;4.40;101120.00;;;;10060442;29;20242;-83
2023/11/26 02:25:29;;;;;;;19.23;8.17;;;;;4.40;101124.00;;;;10071750;29;20234;-82
2023/11/26 02:30:31;;;;;;;17.83;7.87;;;;;4.40;101114.00;;;;10055992;29;20935;-83
2023/11/26 02:35:32;;;;;;;21.23;8.23;;;;;4.40;101128.00;;;;10070296;29;20678;-83
2023/11/26 02:40:33;;;;;;;19.90;7.57;;;;;4.40;101130.00;;;;10071865;29;20287;-83
2023/11/26 02:45:34;;;;;;;18.60;8.23;;;;;4.50;101126.00;;;;10075709;29;20247;-83
2023/11/26 02:50:36;;;;;;;19.57;9.97;;;;;4.50;101129.00;;;;10073173;29;20227;-84
2023/11/26 02:55:37;;;;;;;16.43;8.43;;;;;4.60;101129.00;;;;10055337;29;20220;-83
2023/11/26 03:00:42;;;;;;;21.13;9.63;;;;;4.60;101121.00;;;;10073424;29;20299;-82
2023/11/26 03:05:47;;;;;;;17.67;9.73;;;;;4.70;101124.00;;;;10104140;29;20227;-83
2023/11/26 03:16:11;;;;;;;18.33;11.60;;;;;4.80;101123.00;;;;10068136;29;20226;-83
2023/11/26 03:21:15;;;;;;;22.50;10.60;;;;;4.80;101126.00;;;;10068839;29;20222;-83
2023/11/26 03:26:16;;;;;;;18.13;10.77;;;;;4.80;101120.00;;;;10056349;29;20236;-83
2023/11/26 03:31:18;;;;;;;19.03;9.67;;;;;4.70;101121.00;;;;10061449;29;20942;-83
2023/11/26 03:36:19;;;;;;;20.33;10.03;;;;;4.70;101126.00;;;;10080905;29;20314;-83
2023/11/26 03:41:20;;;;;;;21.10;9.53;;;;;4.70;101126.00;;;;10059969;29;20231;-83
2023/11/26 03:46:22;;;;;;;17.60;9.70;;;;;4.80;101126.00;;;;10074537;29;20222;-83
2023/11/26 03:51:23;;;;;;;21.50;10.13;;;;;4.80;101130.00;;;;10079311;29;20227;-83
2023/11/26 03:56:25;;;;;;;20.27;9.53;;;;;4.90;101129.00;;;;10060913;29;20936;-83
2023/11/26 04:01:27;;;;;;;22.80;11.57;;;;;4.90;101121.00;;;;10080366;29;20675;-83
2023/11/26 04:06:29;;;;;;;22.67;11.50;;;;;4.90;101118.00;;;;10094119;29;20299;-83
2023/11/26 04:11:30;;;;;;;21.97;11.87;;;;;5.00;101130.00;;;;10076688;29;20317;-83
2023/11/26 04:16:31;;;;;;;25.33;13.10;;;;;5.00;101132.00;;;;10051182;29;20397;-83
2023/11/26 04:21:32;;;;;;;26.93;12.90;;;;;5.10;101140.00;;;;10061191;29;20227;-82
2023/11/26 04:26:33;;;;;;;25.33;12.90;;;;;5.10;101137.00;;;;10074125;29;20234;-82
2023/11/26 04:31:46;;;;;;;21.73;12.43;;;;;5.10;101138.00;;;;10093000;29;20231;-82
2023/11/26 04:36:47;;;;;;;30.17;12.20;;;;;5.10;101133.00;;;;10075621;29;20302;-82
2023/11/26 04:41:48;;;;;;;23.53;12.33;;;;;5.10;101127.00;;;;10087876;29;20244;-82
2023/11/26 04:46:49;;;;;;;32.90;14.57;;;;;5.10;101137.00;;;;10100822;29;20227;-82
2023/11/26 04:51:51;;;;;;;25.87;13.10;;;;;5.10;101132.00;;;;10088666;29;20334;-83
2023/11/26 04:56:53;;;;;;;20.17;13.03;;;;;5.10;101128.00;;;;10057859;29;20255;-82
2023/11/26 05:01:55;;;;;;;16.80;11.73;;;;;5.10;101143.00;;;;10071981;29;20911;-83
2023/11/26 05:06:57;;;;;;;22.40;12.13;;;;;5.10;101132.00;;;;10080898;29;20227;-82
2023/11/26 05:12:03;;;;;;;20.67;10.03;;;;;5.20;101127.00;;;;10050423;29;20254;-83
2023/11/26 05:17:05;;;;;;;18.93;10.70;;;;;5.20;101125.00;;;;10079094;29;20216;-83
2023/11/26 05:22:06;;;;;;;22.20;11.47;;;;;5.20;101123.00;;;;10063400;29;20310;-82
2023/11/26 05:27:07;;;;;;;18.83;10.70;;;;;5.20;101135.00;;;;10070084;29;20324;-83
2023/11/26 05:32:08;;;;;;;20.93;9.57;;;;;5.20;101130.00;;;;10049287;29;20227;-83
2023/11/26 05:37:11;;;;;;;21.57;8.97;;;;;5.20;101140.00;;;;10061255;29;20220;-83
2023/11/26 05:42:13;;;;;;;21.33;8.83;;;;;5.30;101131.00;;;;10056880;29;20277;-83
2023/11/26 05:47:14;;;;;;;13.50;8.03;;;;;5.30;101139.00;;;;10070966;29;20306;-83
2023/11/26 05:52:15;;;;;;;14.27;7.43;;;;;5.30;101138.00;;;;10076066;29;20215;-83
2023/11/26 05:57:16;;;;;;;19.43;8.67;;;;;5.30;101135.00;;;;10060682;29;20309;-83
2023/11/26 06:02:18;;;;;;;20.20;8.10;;;;;5.30;101138.00;;;;10071077;29;20223;-83
2023/11/26 06:07:19;;;;;;;16.67;8.33;;;;;5.30;101138.00;;;;10074617;29;21389;-83
2023/11/26 06:12:20;;;;;;;15.63;7.30;;;;;5.30;101125.00;;;;10069827;29;20231;-82
2023/11/26 06:17:21;;;;;;;19.60;7.03;;;;;5.30;101123.00;;;;10056192;29;20388;-82
2023/11/26 06:22:22;;;;;;;18.93;7.10;;;;;5.20;101125.00;;;;10055384;29;20220;-82
2023/11/26 06:27:23;;;;;;;14.70;7.53;;;;;5.30;101135.00;;;;10061644;29;20231;-83
2023/11/26 06:32:24;;;;;;;18.70;8.40;;;;;5.30;101139.00;;;;10051976;29;20235;-83
2023/11/26 06:37:26;;;;;;;22.50;8.40;;;;;5.20;101137.00;;;;10082581;29;20223;-83
2023/11/26 06:42:27;;;;;;;26.10;8.23;;;;;5.20;101137.00;;;;10071993;29;20230;-82
2023/11/26 06:47:29;;;;;;;18.80;8.43;;;;;5.20;101135.00;;;;10073841;29;20238;-83
2023/11/26 06:52:30;;;;;;;21.60;9.33;;;;;5.30;101132.00;;;;10054226;29;20833;-84
2023/11/26 06:57:34;;;;;;;21.23;9.87;;;;;5.30;101128.00;;;;10064056;29;20865;-84
2023/11/26 07:02:35;;;;;;;24.87;11.47;;;;;5.30;101134.00;;;;10074260;29;20220;-83
2023/11/26 07:07:36;;;;;;;25.27;12.27;;;;;5.40;101139.00;;;;10067887;29;20302;-83
2023/11/26 07:12:37;;;;;;;26.60;11.53;;;;;5.40;101144.00;;;;10065020;29;20310;-83
2023/11/26 07:17:39;;;;;;;26.23;12.80;;;;;5.40;101131.00;;;;10095725;29;20230;-83
2023/11/26 07:22:40;;;;;;;25.57;12.60;;;;;5.40;101141.00;;;;10077532;29;20234;-84
2023/11/26 07:27:41;;;;;;;25.87;13.10;;;;;5.40;101143.00;;;;10081511;29;20223;-82
2023/11/26 07:32:42;;;;;;;24.13;13.93;;;;;5.50;101150.00;;;;10076092;29;20271;-84
2023/11/26 07:37:44;;;;;;;30.03;14.60;;;;;5.50;101151.00;;;;10084777;29;20219;-84
2023/11/26 07:42:45;;;;;;;30.37;15.30;;;;;5.60;101162.00;;;;10087496;29;20797;-84
2023/11/26 07:47:46;;;;;;;34.10;16.80;;;;;5.60;101153.00;;;;10083654;29;20235;-84
2023/11/26 07:52:48;;;;;;;27.23;16.07;;;;;5.60;101162.00;;;;10078474;29;20230;-85
2023/11/26 07:57:49;;;;;;;29.37;16.77;;;;;5.70;101147.00;;;;10081317;29;20253;-83
2023/11/26 08:02:51;;;;;;;30.50;15.57;;;;;5.70;101147.00;;;;10118159;29;20230;-81
2023/11/26 08:07:52;;;;;;;31.93;16.70;;;;;5.80;101144.00;;;;10103071;29;20233;-82
2023/11/26 08:12:53;;;;;;;25.30;15.60;;;;;5.90;101147.00;;;;10070069;29;20243;-82
2023/11/26 08:17:56;;;;;;;24.47;15.73;;;;;5.90;101148.00;;;;10048214;29;20635;-82
2023/11/26 08:23:05;;;;;;;31.53;14.77;;;;;5.90;101150.00;;;;10030266;29;20691;-83
2023/11/26 08:28:18;;;;;;;22.83;14.60;;;;;6.00;101150.00;;;;10016584;29;20299;-83
2023/11/26 08:33:22;;;;;;;25.27;14.17;;;;;6.00;101155.00;;;;9997409;29;20320;-84
2023/11/26 08:38:25;;;;;;;24.33;13.13;;;;;6.10;101160.00;;;;10038889;29;20316;-83
2023/11/26 08:43:32;;;;;;;30.37;13.37;;;;;6.10;101158.00;;;;10033627;29;20232;-82
2023/11/26 08:48:36;;;;;;;23.07;13.17;;;;;6.20;101164.00;;;;10003694;29;20237;-81
2023/11/26 08:53:37;;;;;;;29.27;13.50;;;;;6.20;101160.00;;;;10035862;29;20231;-83
2023/11/26 08:58:40;;;;;;;26.00;13.40;;;;;6.20;101158.00;;;;10034984;29;20220;-83
2023/11/26 09:03:41;;;;;;;24.47;13.87;;;;;6.10;101166.00;;;;10015379;29;20223;-83
2023/11/26 09:08:50;;;;;;;31.20;15.20;;;;;6.10;101163.00;;;;10050844;29;21335;-82
2023/11/26 09:13:51;;;;;;;27.23;15.13;;;;;6.00;101164.00;;;;10041190;29;20220;-82
2023/11/26 09:18:53;;;;;;;27.37;15.07;;;;;6.00;101166.00;;;;10090549;29;20227;-82
2023/11/26 09:23:54;;;;;;;31.93;16.10;;;;;5.90;101173.00;;;;10063846;29;20235;-84
2023/11/26 09:28:56;;;;;;;35.17;16.30;;;;;5.90;101183.00;;;;10087378;29;20766;-84
2023/11/26 09:34:02;;;;;;;33.93;16.57;;;;;5.90;101185.00;;;;10061902;29;20227;-83
2023/11/26 09:39:03;;;;;;;33.80;16.93;;;;;5.90;101188.00;;;;10068026;29;20231;-84
2023/11/26 09:44:08;;;;;;;35.73;18.67;;;;;5.90;101185.00;;;;10061997;29;20577;-86
2023/11/26 09:49:09;;;;;;;33.63;18.40;;;;;5.80;101182.00;;;;10038018;29;20228;-83
2023/11/26 09:54:12;;;;;;;32.97;18.90;;;;;5.90;101184.00;;;;10049496;29;20231;-84
2023/11/26 09:59:28;;;;;;;34.10;19.90;;;;;6.00;101178.00;;;;10017166;29;20227;-83
2023/11/26 10:04:49;;;;;;;38.23;20.43;;;;;6.10;101182.00;;;;10065621;29;20711;-85
2023/11/26 10:10:09;;;;;;;40.53;21.53;;;;;6.30;101173.00;;;;10069060;29;20231;-85
2023/11/26 10:15:10;;;;;;;42.00;21.00;;;;;6.30;101171.00;;;;10068924;29;20223;-84
2023/11/26 10:20:20;;;;;;;41.23;20.83;;;;;6.40;101164.00;;;;10067104;29;20232;-84
2023/11/26 10:25:21;;;;;;;33.53;19.57;;;;;6.60;101160.00;;;;10046486;29;20280;-84
2023/11/26 10:30:26;;;;;;;34.00;18.23;;;;;6.90;101141.00;;;;10076224;29;20239;-85
2023/11/26 10:35:43;;;;;;;40.37;17.43;;;;;7.10;101150.00;;;;10061974;29;20219;-85
2023/11/26 10:40:45;;;;;;;37.83;15.43;;;;;7.20;101132.00;;;;10073337;29;20232;-85
2023/11/26 10:45:46;;;;;;;27.43;16.03;;;;;7.30;101141.00;;;;10089046;29;20223;-85
2023/11/26 10:51:09;;;;;;;31.70;15.60;;;;;7.10;101131.00;;;;10073565;29;20707;-85
2023/11/26 10:56:26;;;;;;;25.93;13.90;;;;;7.10;101120.00;;;;10066041;29;20232;-86
2023/11/26 11:01:28;;;;;;;31.33;14.20;;;;;7.20;101118.00;;;;10076996;29;20235;-86
2023/11/26 11:06:31;;;;;;;29.67;12.20;;;;;7.30;101117.00;;;;10073061;29;20240;-84
2023/11/26 11:11:55;;;;;;;25.20;12.47;;;;;7.30;101118.00;;;;10071893;29;20248;-82
2023/11/26 11:16:56;;;;;;;27.23;11.67;;;;;7.50;101120.00;;;;10110933;29;20323;-82
2023/11/26 11:21:58;;;;;;;35.13;12.13;;;;;7.60;101111.00;;;;10105877;29;20234;-87
2023/11/26 11:26:59;;;;;;;25.23;12.23;;;;;7.60;101113.00;;;;10090952;29;20226;-84
2023/11/26 11:32:04;;;;;;;25.20;12.27;;;;;7.80;101108.00;;;;10050479;29;20237;-83
2023/11/26 11:37:08;;;;;;;24.83;12.03;;;;;7.80;101107.00;;;;10056835;29;20263;-84
2023/11/26 11:42:10;;;;;;;25.27;12.80;;;;;7.90;101113.00;;;;10069502;29;20302;-82
2023/11/26 11:47:38;;;;;;;24.37;12.87;;;;;7.90;101113.00;;;;10043904;29;20239;-85
2023/11/26 11:52:39;;;;;;;25.93;11.47;;;;;7.90;101110.00;;;;10059959;29;20224;-85
2023/11/26 11:57:48;;;;;;;23.93;12.27;;;;;8.00;101102.00;;;;10060968;29;20235;-83
2023/11/26 12:02:49;;;;;;;23.10;11.87;;;;;8.10;101099.00;;;;10054538;29;20227;-85
2023/11/26 12:07:52;;;;;;;27.83;10.80;;;;;8.10;101085.00;;;;10056814;29;20326;-83
2023/11/26 12:13:07;;;;;;;24.20;11.53;;;;;8.00;101092.00;;;;10058652;29;20317;-84
2023/11/26 12:18:09;;;;;;;24.70;11.03;;;;;8.00;101080.00;;;;10071073;29;20223;-84
2023/11/26 12:23:29;;;;;;;22.60;11.43;;;;;8.00;101086.00;;;;9918958;29;20232;-83
2023/11/26 12:28:47;;;;;;;28.70;10.87;;;;;8.10;101087.00;;;;9959203;29;20244;-84
2023/11/26 12:33:53;;;;;;;23.40;11.30;;;;;8.10;101092.00;;;;9950037;29;20231;-83
2023/11/26 12:38:56;;;;;;;19.57;10.17;;;;;8.00;101083.00;;;;9996939;29;20243;-82
2023/11/26 12:44:02;;;;;;;26.60;9.67;;;;;8.00;101094.00;;;;9971077;29;20240;-84
2023/11/26 12:49:13;;;;;;;23.70;9.73;;;;;8.00;101095.00;;;;10077209;29;20223;-84
2023/11/26 12:54:17;;;;;;;20.80;10.50;;;;;8.00;101084.00;;;;10030525;29;20223;-84
2023/11/26 12:59:24;;;;;;;19.47;9.60;;;;;8.00;101078.00;;;;9932438;29;20307;-84
2023/11/26 13:04:33;;;;;;;19.57;9.97;;;;;7.90;101077.00;;;;9995281;29;20766;-82
2023/11/26 13:09:50;;;;;;;23.77;9.53;;;;;7.90;101070.00;;;;9963284;29;20318;-83
2023/11/26 13:14:51;;;;;;;23.87;9.73;;;;;7.80;101071.00;;;;10018174;29;24111;-83
2023/11/26 13:19:53;;;;;;;16.97;8.70;;;;;7.70;101071.00;;;;10021212;29;20674;-83
2023/11/26 13:24:54;;;;;;;22.53;9.73;;;;;7.60;101067.00;;;;10051445;29;20276;-83
2023/11/26 13:29:56;;;;;;;21.10;9.30;;;;;7.60;101063.00;;;;10035567;29;20786;-83
2023/11/26 13:35:00;;;;;;;22.70;9.43;;;;;7.60;101061.00;;;;10053430;29;20234;-84
2023/11/26 13:40:03;;;;;;;15.33;9.97;;;;;7.60;101065.00;;;;10054749;29;20231;-83
2023/11/26 13:45:05;;;;;;;21.13;10.57;;;;;7.50;101061.00;;;;10044632;29;20361;-84
2023/11/26 13:50:17;;;;;;;21.77;12.50;;;;;7.50;101066.00;;;;10037029;29;20408;-83
2023/11/26 13:55:20;;;;;;;27.57;11.60;;;;;7.40;101056.00;;;;10045194;29;20975;-83
2023/11/26 14:00:24;;;;;;;23.00;11.13;;;;;7.40;101051.00;;;;10062021;29;20224;-82
2023/11/26 14:05:27;;;;;;;19.57;11.33;;;;;7.30;101044.00;;;;10053789;29;20252;-82
2023/11/26 14:10:30;;;;;;;22.93;11.13;;;;;7.20;101044.00;;;;10063402;29;20227;-81
2023/11/26 14:15:34;;;;;;;22.90;11.10;;;;;7.20;101047.00;;;;10076129;29;20285;-81
2023/11/26 14:20:37;;;;;;;25.63;11.17;;;;;7.10;101041.00;;;;10076028;29;20887;-82
2023/11/26 14:25:39;;;;;;;27.00;11.43;;;;;7.10;101040.00;;;;10084679;28;20207;-81
2023/11/26 14:30:40;;;;;;;24.80;9.77;;;;;7.00;101043.00;;;;10104208;29;20220;-81
2023/11/26 14:35:43;;;;;;;27.97;10.10;;;;;6.90;101022.00;;;;10089223;29;20227;-81
2023/11/26 14:40:47;;;;;;;22.57;9.53;;;;;6.80;101018.00;;;;10065568;29;20251;-81
2023/11/26 14:45:48;;;;;;;25.33;9.87;;;;;6.60;101021.00;;;;10067840;29;20283;-81
2023/11/26 14:50:51;;;;;;;24.37;10.57;;;;;6.60;101014.00;;;;10063683;29;20227;-82
2023/11/26 14:55:54;;;;;;;20.67;9.90;;;;;6.50;101012.00;;;;10075443;29;20223;-83
2023/11/26 15:00:56;;;;;;;19.30;10.67;;;;;6.50;101002.00;;;;10061527;29;20327;-81
2023/11/26 15:05:58;;;;;;;24.07;10.73;;;;;6.40;100993.00;;;;10078785;29;20926;-81
2023/11/26 15:11:01;;;;;;;18.13;9.77;;;;;6.30;100992.00;;;;10048378;29;20227;-82
2023/11/26 15:16:03;;;;;;;20.33;9.97;;;;;6.30;100988.00;;;;10045381;29;20239;-82
2023/11/26 15:21:07;;;;;;;29.20;10.70;;;;;6.20;100974.00;;;;10034845;29;20243;-81
2023/11/26 15:26:21;;;;;;;20.23;9.23;;;;;6.20;100975.00;;;;9896207;29;20221;-81
2023/11/26 15:32:02;;;;;;;15.97;8.80;;;;;6.10;100981.00;;;;9865845;29;20233;-81
2023/11/26 15:37:22;;;;;;;24.83;9.90;;;;;6.00;100969.00;;;;9926511;29;20225;-80
2023/11/26 15:42:28;;;;;;;20.50;9.93;;;;;5.90;100969.00;;;;9887413;29;20858;-81
2023/11/26 15:47:31;;;;;;;23.17;8.83;;;;;5.80;100965.00;;;;9903638;29;20322;-81
2023/11/26 15:52:41;;;;;;;22.47;9.50;;;;;5.70;100965.00;;;;9988195;29;20231;-81
2023/11/26 15:57:44;;;;;;;17.50;8.83;;;;;5.70;100958.00;;;;10055242;29;20699;-81
2023/11/26 16:02:45;;;;;;;23.33;10.60;;;;;5.70;100948.00;;;;9975372;29;20232;-81
2023/11/26 16:07:50;;;;;;;21.20;9.57;;;;;5.60;100943.00;;;;10083874;29;20251;-81
2023/11/26 16:12:51;;;;;;;20.77;9.80;;;;;5.60;100940.00;;;;10039790;29;20287;-82
2023/11/26 16:17:54;;;;;;;25.60;10.23;;;;;5.60;100931.00;;;;10070498;29;20288;-82
2023/11/26 16:22:55;;;;;;;19.77;9.40;;;;;5.50;100927.00;;;;10069441;29;20223;-82
2023/11/26 16:27:57;;;;;;;16.13;8.33;;;;;5.60;100934.00;;;;10072917;29;20972;-82
2023/11/26 16:33:01;;;;;;;17.60;8.93;;;;;5.50;100932.00;;;;10046425;29;20323;-81
2023/11/26 16:38:03;;;;;;;25.50;10.87;;;;;5.50;100925.00;;;;10058510;29;20246;-81
2023/11/26 16:43:04;;;;;;;18.17;9.53;;;;;5.50;100927.00;;;;10076030;29;20232;-82
2023/11/26 16:48:05;;;;;;;11.43;6.73;;;;;5.40;100927.00;;;;10065663;29;20822;-82
2023/11/26 16:53:07;;;;;;;16.30;7.33;;;;;5.40;100919.00;;;;10074670;29;20226;-82
2023/11/26 16:58:08;;;;;;;12.60;6.50;;;;;5.40;100916.00;;;;10085441;29;20332;-81
2023/11/26 17:03:10;;;;;;;12.83;6.93;;;;;5.40;100905.00;;;;10077466;29;20234;-82
2023/11/26 17:08:11;;;;;;;11.13;6.53;;;;;5.30;100903.00;;;;10079326;29;20235;-83
2023/11/26 17:13:12;;;;;;;15.07;6.90;;;;;5.30;100904.00;;;;10073915;29;20697;-83
2023/11/26 17:18:14;;;;;;;12.77;7.57;;;;;5.30;100905.00;;;;10068257;29;20862;-83
2023/11/26 17:23:16;;;;;;;12.33;7.00;;;;;5.20;100893.00;;;;10051663;29;20235;-83
2023/11/26 17:28:17;;;;;;;14.47;7.43;;;;;5.20;100886.00;;;;10084361;29;20454;-81
2023/11/26 17:33:18;;;;;;;14.57;7.03;;;;;5.10;100889.00;;;;10137587;28;20259;-82
2023/11/26 17:38:20;;;;;;;15.67;7.37;;;;;5.10;100887.00;;;;10101883;29;20226;-82
2023/11/26 17:43:22;;;;;;;10.80;6.50;;;;;5.10;100876.00;;;;10066668;29;20232;-81
2023/11/26 17:48:24;;;;;;;14.23;6.90;;;;;5.00;100871.00;;;;10065271;29;20235;-82
2023/11/26 17:53:25;;;;;;;15.07;7.43;;;;;5.10;100873.00;;;;10062382;29;20904;-82
2023/11/26 17:58:27;;;;;;;16.67;7.23;;;;;5.10;100867.00;;;;10068062;29;20299;-82
2023/11/26 18:03:29;;;;;;;10.90;6.57;;;;;5.10;100869.00;;;;10051393;29;20310;-82
2023/11/26 18:08:30;;;;;;;15.13;7.43;;;;;5.10;100863.00;;;;10053199;29;20246;-82
2023/11/26 18:13:32;;;;;;;14.63;7.90;;;;;5.10;100864.00;;;;10067423;29;20229;-82
2023/11/26 18:18:34;;;;;;;14.23;7.87;;;;;5.10;100853.00;;;;10049322;29;20228;-82
2023/11/26 18:23:35;;;;;;;15.30;7.73;;;;;5.10;100843.00;;;;10085979;29;20255;-82
2023/11/26 18:28:38;;;;;;;12.33;6.83;;;;;5.10;100846.00;;;;10074196;29;20310;-82
2023/11/26 18:33:39;;;;;;;13.17;6.97;;;;;5.10;100836.00;;;;10098013;29;20232;-81
2023/11/26 18:38:40;;;;;;;12.80;7.63;;;;;5.10;100844.00;;;;10047823;29;20223;-82
2023/11/26 18:43:43;;;;;;;14.13;6.70;;;;;5.10;100845.00;;;;10047674;29;20231;-82
2023/11/26 18:48:44;;;;;;;11.50;7.23;;;;;5.10;100834.00;;;;10059946;29;20852;-82
2023/11/26 18:53:45;;;;;;;22.53;8.53;;;;;5.20;100830.00;;;;10064773;29;20227;-82
2023/11/26 18:58:47;;;;;;;15.70;7.37;;;;;5.20;100813.00;;;;10090895;29;20243;-81
2023/11/26 19:03:48;;;;;;;12.87;7.50;;;;;5.30;100812.00;;;;10068791;29;20227;-82
2023/11/26 19:08:50;;;;;;;15.23;8.33;;;;;5.30;100804.00;;;;10070140;29;20222;-81
2023/11/26 19:13:52;;;;;;;18.10;7.73;;;;;5.30;100807.00;;;;10090361;29;20229;-82
2023/11/26 19:18:55;;;;;;;13.00;7.90;;;;;5.30;100799.00;;;;10053150;29;20295;-81
2023/11/26 19:23:57;;;;;;;11.30;7.13;;;;;5.30;100797.00;;;;10072307;29;20227;-80
2023/11/26 19:28:59;;;;;;;13.67;7.53;;;;;5.30;100790.00;;;;10084753;29;20228;-81
2023/11/26 19:34:01;;;;;;;15.60;8.03;;;;;5.30;100789.00;;;;10069070;29;20223;-81
2023/11/26 19:39:02;;;;;;;15.67;8.33;;;;;5.30;100773.00;;;;10072909;29;20238;-82
2023/11/26 19:44:03;;;;;;;15.17;7.90;;;;;5.30;100785.00;;;;10075714;29;21001;-81
2023/11/26 19:49:05;;;;;;;13.10;7.97;;;;;5.30;100770.00;;;;10064107;29;20230;-82
2023/11/26 19:54:10;;;;;;;16.67;8.17;;;;;5.30;100777.00;;;;10076834;29;20853;-81
2023/11/26 19:59:12;;;;;;;15.03;8.00;;;;;5.30;100769.00;;;;10070616;29;20271;-81
2023/11/26 20:04:14;;;;;;;15.50;6.83;;;;;5.30;100757.00;;;;10098970;29;20231;-82
2023/11/26 20:09:15;;;;;;;19.63;8.30;;;;;5.20;100745.00;;;;10085997;29;20247;-82
2023/11/26 20:14:16;;;;;;;16.67;9.13;;;;;5.20;100746.00;;;;10062993;29;20255;-82
2023/11/26 20:19:18;;;;;;;13.37;7.63;;;;;5.20;100748.00;;;;10077554;29;20630;-82
2023/11/26 20:24:19;;;;;;;18.13;8.27;;;;;5.20;100743.00;;;;10059795;29;20231;-82
2023/11/26 20:29:27;;;;;;;14.63;7.93;;;;;5.20;100733.00;;;;10064407;29;20250;-82
2023/11/26 20:34:28;;;;;;;14.57;8.30;;;;;5.20;100722.00;;;;10090773;29;20227;-82
2023/11/26 20:39:30;;;;;;;19.37;8.23;;;;;5.20;100730.00;;;;10072952;29;20231;-82
2023/11/26 20:44:31;;;;;;;13.70;8.10;;;;;5.10;100718.00;;;;10064205;29;20216;-82
2023/11/26 20:49:32;;;;;;;13.67;7.93;;;;;5.10;100708.00;;;;10076885;29;20227;-82
2023/11/26 20:54:36;;;;;;;16.47;7.27;;;;;5.10;100697.00;;;;10075057;29;21080;-82
2023/11/26 20:59:39;;;;;;;13.30;8.37;;;;;5.10;100700.00;;;;10084193;29;20234;-82
2023/11/26 21:04:43;;;;;;;17.00;7.97;;;;;5.10;100681.00;;;;10082782;29;20254;-82
2023/11/26 21:09:44;;;;;;;15.53;7.90;;;;;5.10;100685.00;;;;10074079;29;20486;-82
2023/11/26 21:14:45;;;;;;;13.77;8.03;;;;;5.10;100683.00;;;;10077169;29;20242;-83
2023/11/26 21:19:46;;;;;;;15.40;7.90;;;;;5.10;100681.00;;;;10072551;29;20223;-82
2023/11/26 21:24:48;;;;;;;11.30;6.80;;;;;5.10;100675.00;;;;10074144;29;20232;-83
2023/11/26 21:29:49;;;;;;;13.43;8.10;;;;;5.10;100660.00;;;;10064409;29;20239;-82
2023/11/26 21:34:50;;;;;;;12.23;7.20;;;;;5.10;100653.00;;;;10090550;29;20253;-83
2023/11/26 21:39:51;;;;;;;16.57;7.90;;;;;5.10;100642.00;;;;10078357;29;20230;-82
2023/11/26 21:44:53;;;;;;;13.10;5.53;;;;;5.10;100634.00;;;;10081196;29;20230;-82
2023/11/26 21:49:54;;;;;;;11.07;6.47;;;;;5.10;100641.00;;;;10065814;29;20251;-82
2023/11/26 21:54:55;;;;;;;15.37;6.97;;;;;5.10;100628.00;;;;10062071;29;20231;-83
2023/11/26 21:59:56;;;;;;;15.07;6.67;;;;;5.10;100629.00;;;;10065839;29;20223;-82
2023/11/26 22:04:58;;;;;;;8.63;5.80;;;;;5.10;100626.00;;;;10062271;29;20245;-82
2023/11/26 22:09:59;;;;;;;12.37;6.80;;;;;5.10;100624.00;;;;10063493;29;20235;-82
2023/11/26 22:15:00;;;;;;;11.33;7.90;;;;;5.10;100615.00;;;;10077566;29;20220;-82
2023/11/26 22:20:02;;;;;;;11.50;6.90;;;;;5.00;100599.00;;;;10059467;29;20253;-83
2023/11/26 22:25:03;;;;;;;16.73;7.00;;;;;5.00;100597.00;;;;10076316;29;20219;-82
2023/11/26 22:30:05;;;;;;;15.97;6.07;;;;;5.00;100579.00;;;;10079986;29;20234;-81
2023/11/26 22:35:10;;;;;;;13.60;6.87;;;;;5.00;100586.00;;;;10070339;29;20224;-83
2023/11/26 22:40:12;;;;;;;12.30;7.13;;;;;5.00;100577.00;;;;10079494;29;20230;-83
2023/11/26 22:45:13;;;;;;;13.97;6.87;;;;;5.00;100575.00;;;;10093546;29;20222;-83
2023/11/26 22:50:14;;;;;;;13.77;7.03;;;;;5.00;100565.00;;;;10063341;29;20265;-83
2023/11/26 22:55:20;;;;;;;11.77;6.63;;;;;5.00;100557.00;;;;10089657;29;20231;-84
2023/11/26 23:00:30;;;;;;;14.97;7.30;;;;;5.00;100562.00;;;;10102648;28;20219;-82
2023/11/26 23:05:31;;;;;;;14.77;8.23;;;;;5.00;100560.00;;;;10111985;29;20235;-81
2023/11/26 23:10:32;;;;;;;12.57;8.27;;;;;5.00;100546.00;;;;10083720;29;20232;-83
2023/11/26 23:15:33;;;;;;;12.20;7.93;;;;;5.00;100535.00;;;;10090105;29;20250;-83
2023/11/26 23:20:35;;;;;;;16.27;8.73;;;;;5.00;100535.00;;;;10066747;29;20306;-82
2023/11/26 23:25:37;;;;;;;15.67;8.60;;;;;5.00;100528.00;;;;10088454;29;20231;-83
2023/11/26 23:30:38;;;;;;;14.43;7.90;;;;;5.00;100526.00;;;;10087365;29;20287;-83
2023/11/26 23:35:39;;;;;;;16.90;8.90;;;;;4.90;100517.00;;;;10067172;29;20234;-83
2023/11/26 23:40:46;;;;;;;12.93;8.87;;;;;4.90;100514.00;;;;10057240;29;20314;-82
2023/11/26 23:45:47;;;;;;;14.80;8.80;;;;;4.90;100494.00;;;;10068400;29;20646;-83
2023/11/26 23:50:48;;;;;;;16.00;9.03;;;;;4.90;100501.00;;;;10069035;29;20743;-84
2023/11/26 23:55:49;;;;;;;17.60;9.20;;;;;4.80;100482.00;;;;10085554;29;20227;-82
